Time;durP1;ratioP1;P1;durP2;ratioP2;P2;SDS_P1;SDS_P2;PMS_P1;PMS_P2;Temp;Humidity;BMP_temperature;BMP_pressure;BME280_temperature;BME280_humidity;BME280_pressure;Samples;Min_cycle;Max_cycle;Signal;HPM_P1;HPM_P2
2023/05/30 00:00:28;;;;;;;6.10;2.20;;;10.90;99.90;;;;;;5051940;28;20241;-75
2023/05/30 00:02:55;;;;;;;8.47;3.03;;;10.80;99.90;;;;;;5047253;28;20210;-74
2023/05/30 00:05:22;;;;;;;9.03;3.23;;;10.80;99.90;;;;;;5044272;28;20212;-76
2023/05/30 00:07:49;;;;;;;9.53;2.80;;;10.80;99.90;;;;;;5052185;28;20202;-75
2023/05/30 00:10:16;;;;;;;9.87;2.83;;;10.80;99.90;;;;;;5047408;28;20379;-75
2023/05/30 00:12:46;;;;;;;15.23;3.10;;;10.70;99.90;;;;;;5038680;28;20202;-74
2023/05/30 00:15:16;;;;;;;14.63;3.10;;;10.70;99.90;;;;;;5047667;28;20361;-73
2023/05/30 00:17:43;;;;;;;9.67;3.37;;;10.60;99.90;;;;;;5051362;28;20268;-75
2023/05/30 00:20:10;;;;;;;12.03;3.40;;;10.70;99.90;;;;;;5030617;28;20334;-76
2023/05/30 00:22:40;;;;;;;8.10;3.20;;;10.60;99.90;;;;;;5046780;28;20212;-76
2023/05/30 00:25:09;;;;;;;20.13;3.50;;;10.60;99.90;;;;;;5048804;28;20214;-75
2023/05/30 00:27:37;;;;;;;11.00;3.10;;;10.60;99.90;;;;;;5050354;28;20197;-76
2023/05/30 00:30:04;;;;;;;8.90;3.00;;;10.60;99.90;;;;;;5049624;28;20329;-75
2023/05/30 00:32:31;;;;;;;12.17;3.47;;;10.50;99.90;;;;;;5049420;28;20693;-75
2023/05/30 00:34:57;;;;;;;9.00;3.30;;;10.50;99.90;;;;;;5049829;28;20661;-76
2023/05/30 00:37:25;;;;;;;14.80;3.60;;;10.50;99.90;;;;;;5048345;28;20197;-75
2023/05/30 00:39:51;;;;;;;6.90;3.20;;;10.50;99.90;;;;;;5047558;28;20228;-75
2023/05/30 00:42:18;;;;;;;13.03;3.37;;;10.50;99.90;;;;;;5050476;28;20213;-75
2023/05/30 00:44:45;;;;;;;8.57;3.90;;;10.50;99.90;;;;;;5051647;28;20236;-75
2023/05/30 00:47:13;;;;;;;10.30;3.30;;;10.40;99.90;;;;;;5050959;28;20224;-76
2023/05/30 00:49:40;;;;;;;14.77;3.53;;;10.40;99.90;;;;;;5047546;28;20265;-75
2023/05/30 00:52:08;;;;;;;14.10;3.60;;;10.40;99.90;;;;;;5029263;28;20234;-75
2023/05/30 00:54:37;;;;;;;8.00;3.43;;;10.40;99.90;;;;;;5044566;28;20205;-76
2023/05/30 00:57:05;;;;;;;13.37;3.37;;;10.40;99.90;;;;;;5048210;28;20200;-75
2023/05/30 00:59:34;;;;;;;12.83;3.50;;;10.40;99.90;;;;;;5050644;28;20297;-75
2023/05/30 01:02:01;;;;;;;15.77;3.43;;;10.40;99.90;;;;;;5046702;28;20225;-76
2023/05/30 01:04:27;;;;;;;9.83;2.87;;;10.40;99.90;;;;;;5027916;28;20201;-75
2023/05/30 01:06:54;;;;;;;10.13;4.00;;;10.40;99.90;;;;;;5050627;28;20205;-76
2023/05/30 01:09:21;;;;;;;10.23;3.37;;;10.30;99.90;;;;;;5045170;28;20217;-74
2023/05/30 01:11:51;;;;;;;7.97;3.37;;;10.30;99.90;;;;;;5047666;28;20204;-75
2023/05/30 01:14:36;;;;;;;12.33;4.13;;;10.30;99.90;;;;;;5049904;28;20251;-75
2023/05/30 01:17:24;;;;;;;10.60;3.57;;;10.30;99.90;;;;;;5051146;28;20312;-76
2023/05/30 01:20:05;;;;;;;13.23;3.60;;;10.40;99.90;;;;;;5048464;28;20279;-74
2023/05/30 01:23:06;;;;;;;10.03;3.57;;;10.30;99.90;;;;;;5048037;28;20297;-75
2023/05/30 01:26:08;;;;;;;12.43;3.47;;;10.40;99.90;;;;;;5044719;28;20217;-75
2023/05/30 01:28:37;;;;;;;9.83;3.40;;;10.40;99.90;;;;;;5028537;28;20270;-75
2023/05/30 01:31:07;;;;;;;13.17;3.50;;;10.50;99.90;;;;;;5049939;28;20220;-75
2023/05/30 01:33:35;;;;;;;10.63;3.47;;;10.50;99.90;;;;;;5042592;28;20218;-75
2023/05/30 01:36:02;;;;;;;8.43;2.87;;;10.60;99.90;;;;;;5050397;28;20552;-75
2023/05/30 01:38:29;;;;;;;12.60;3.40;;;10.60;99.90;;;;;;5032345;28;20659;-75
2023/05/30 01:40:59;;;;;;;9.90;3.87;;;10.70;99.90;;;;;;5049050;28;20236;-75
2023/05/30 01:43:26;;;;;;;9.83;3.60;;;10.70;99.90;;;;;;5047406;28;20658;-76
2023/05/30 01:46:08;;;;;;;6.93;3.50;;;10.70;99.90;;;;;;5050598;28;20676;-75
2023/05/30 01:48:43;;;;;;;7.57;3.20;;;10.80;99.90;;;;;;5048129;28;20237;-78
2023/05/30 01:51:18;;;;;;;13.13;3.30;;;10.80;99.90;;;;;;5046600;28;20233;-74
2023/05/30 01:53:56;;;;;;;9.13;3.70;;;10.80;99.90;;;;;;5040737;28;20197;-75
2023/05/30 01:56:31;;;;;;;9.80;3.40;;;10.80;99.90;;;;;;5045223;28;20262;-75
2023/05/30 01:59:00;;;;;;;12.60;3.70;;;10.80;99.90;;;;;;5048552;28;20204;-75
2023/05/30 02:01:30;;;;;;;8.57;3.40;;;10.90;99.90;;;;;;5048915;28;20233;-76
2023/05/30 02:03:57;;;;;;;9.17;3.27;;;10.90;99.90;;;;;;5045981;28;20237;-75
2023/05/30 02:06:24;;;;;;;13.33;4.10;;;10.90;99.90;;;;;;5046562;28;20278;-75
2023/05/30 02:08:51;;;;;;;13.93;3.80;;;10.90;99.90;;;;;;5046921;28;20200;-76
2023/05/30 02:11:18;;;;;;;16.60;4.07;;;11.00;99.90;;;;;;5044739;28;20205;-76
2023/05/30 02:13:46;;;;;;;8.30;3.20;;;11.10;99.90;;;;;;5042773;28;20205;-76
2023/05/30 02:16:13;;;;;;;8.57;3.17;;;11.00;99.90;;;;;;5042324;28;20321;-75
2023/05/30 02:18:41;;;;;;;10.20;3.47;;;11.10;99.90;;;;;;5043831;28;20588;-74
2023/05/30 02:21:08;;;;;;;8.70;3.40;;;11.10;99.90;;;;;;5049655;28;20340;-74
2023/05/30 02:23:35;;;;;;;14.80;4.00;;;11.10;99.90;;;;;;5049395;28;20197;-76
2023/05/30 02:26:02;;;;;;;9.10;3.27;;;11.10;99.90;;;;;;5048913;28;20279;-75
2023/05/30 02:28:29;;;;;;;8.13;3.70;;;11.20;99.90;;;;;;5045783;28;20935;-75
2023/05/30 02:30:57;;;;;;;10.03;3.33;;;11.20;99.90;;;;;;5045564;28;20283;-76
2023/05/30 02:33:25;;;;;;;10.97;3.23;;;11.20;99.90;;;;;;5048898;28;20201;-75
2023/05/30 02:35:52;;;;;;;13.87;4.20;;;11.30;99.90;;;;;;5046671;28;20287;-76
2023/05/30 02:38:19;;;;;;;17.20;3.77;;;11.30;99.90;;;;;;5045792;28;20280;-75
2023/05/30 02:40:48;;;;;;;10.23;3.70;;;11.30;99.90;;;;;;5044397;28;20222;-76
2023/05/30 02:43:15;;;;;;;13.33;3.50;;;11.30;99.90;;;;;;5049678;28;20205;-75
2023/05/30 02:45:47;;;;;;;10.03;4.17;;;11.40;99.90;;;;;;5049762;28;20627;-75
2023/05/30 02:48:14;;;;;;;14.40;4.00;;;11.40;99.90;;;;;;5042194;28;20200;-78
2023/05/30 02:50:41;;;;;;;11.80;3.57;;;11.40;99.90;;;;;;5049911;28;20243;-75
2023/05/30 02:53:08;;;;;;;9.13;4.00;;;11.40;99.90;;;;;;5048347;28;20202;-78
2023/05/30 02:55:35;;;;;;;11.83;4.17;;;11.40;99.90;;;;;;5044434;28;20205;-77
2023/05/30 02:58:03;;;;;;;9.93;3.80;;;11.50;99.90;;;;;;5045641;28;20239;-76
2023/05/30 03:00:30;;;;;;;12.40;4.23;;;11.50;99.90;;;;;;5045712;28;20269;-75
2023/05/30 03:02:57;;;;;;;10.67;3.97;;;11.50;99.90;;;;;;5048352;28;20669;-75
2023/05/30 03:05:25;;;;;;;8.80;3.60;;;11.50;99.90;;;;;;5042391;28;20224;-75
2023/05/30 03:07:52;;;;;;;8.53;3.53;;;11.60;99.90;;;;;;5045728;28;20241;-76
2023/05/30 03:10:18;;;;;;;6.80;3.10;;;11.60;99.90;;;;;;5044480;28;20690;-75
2023/05/30 03:12:45;;;;;;;10.13;4.07;;;11.60;99.90;;;;;;5048722;28;20238;-76
2023/05/30 03:15:12;;;;;;;10.73;4.10;;;11.60;99.90;;;;;;5045200;28;20221;-76
2023/05/30 03:17:41;;;;;;;8.73;3.97;;;11.60;99.90;;;;;;5024315;28;20236;-76
2023/05/30 03:20:09;;;;;;;8.87;3.67;;;11.60;99.90;;;;;;5008527;28;20233;-78
2023/05/30 03:22:38;;;;;;;9.67;3.87;;;11.70;99.90;;;;;;5006954;28;20246;-78
2023/05/30 03:25:06;;;;;;;9.03;4.30;;;11.70;99.90;;;;;;5008894;28;20205;-74
2023/05/30 03:27:33;;;;;;;10.63;3.90;;;11.70;99.90;;;;;;5008584;28;20237;-76
2023/05/30 03:30:04;;;;;;;11.90;4.50;;;11.70;99.90;;;;;;5010577;28;20216;-77
2023/05/30 03:32:31;;;;;;;7.03;3.40;;;11.80;99.90;;;;;;5011943;28;20239;-76
2023/05/30 03:34:58;;;;;;;9.23;4.07;;;11.80;99.90;;;;;;5010570;28;20236;-78
2023/05/30 03:37:24;;;;;;;9.63;4.67;;;11.80;99.90;;;;;;5012969;28;20216;-76
2023/05/30 03:39:52;;;;;;;10.00;4.50;;;11.80;99.90;;;;;;5011852;28;20684;-74
2023/05/30 03:42:20;;;;;;;10.43;4.00;;;11.80;99.90;;;;;;5013468;28;20200;-76
2023/05/30 03:44:47;;;;;;;9.03;3.60;;;11.70;99.90;;;;;;5009026;28;20270;-76
2023/05/30 03:47:14;;;;;;;10.27;4.17;;;11.80;99.90;;;;;;5013287;28;20233;-74
2023/05/30 03:49:40;;;;;;;10.67;4.03;;;11.80;99.90;;;;;;5007612;28;20612;-77
2023/05/30 03:52:07;;;;;;;10.37;4.10;;;11.80;99.90;;;;;;5013055;28;20229;-78
2023/05/30 03:54:34;;;;;;;14.20;4.37;;;11.90;99.90;;;;;;5013094;28;20211;-75
2023/05/30 03:57:01;;;;;;;11.90;3.63;;;11.90;99.90;;;;;;5009907;28;20203;-75
2023/05/30 03:59:30;;;;;;;10.27;4.50;;;11.90;99.90;;;;;;5013550;28;20687;-76
2023/05/30 04:01:56;;;;;;;9.23;4.93;;;11.90;99.90;;;;;;5008527;28;20627;-75
2023/05/30 04:04:23;;;;;;;13.80;5.50;;;11.90;99.90;;;;;;5003358;28;20278;-77
2023/05/30 04:06:50;;;;;;;13.20;4.30;;;11.90;99.90;;;;;;5019184;28;20259;-75
2023/05/30 04:09:17;;;;;;;11.17;4.03;;;11.90;99.90;;;;;;5012080;28;20222;-76
2023/05/30 04:11:44;;;;;;;10.67;4.20;;;11.90;99.90;;;;;;5012421;28;20213;-75
2023/05/30 04:14:11;;;;;;;9.77;4.30;;;11.90;99.90;;;;;;5011752;28;20247;-77
2023/05/30 04:16:38;;;;;;;8.53;4.07;;;11.90;99.90;;;;;;5009646;28;20291;-76
2023/05/30 04:19:05;;;;;;;10.07;3.83;;;11.90;99.90;;;;;;5005968;28;20622;-76
2023/05/30 04:21:32;;;;;;;10.57;4.13;;;11.90;99.90;;;;;;5007024;28;20232;-76
2023/05/30 04:23:59;;;;;;;10.97;3.73;;;12.00;99.90;;;;;;5011838;28;20205;-75
2023/05/30 04:26:26;;;;;;;12.27;3.97;;;12.00;99.90;;;;;;5012729;28;20217;-76
2023/05/30 04:28:56;;;;;;;7.30;4.03;;;12.00;99.90;;;;;;5008694;28;20252;-75
2023/05/30 04:31:26;;;;;;;6.70;3.57;;;12.00;99.90;;;;;;5009101;28;20275;-76
2023/05/30 04:33:55;;;;;;;7.00;3.70;;;12.00;99.90;;;;;;5003600;28;20666;-77
2023/05/30 04:36:22;;;;;;;10.97;4.27;;;12.10;99.90;;;;;;5003886;28;20220;-76
2023/05/30 04:38:49;;;;;;;7.97;3.90;;;12.10;99.90;;;;;;5008691;28;20572;-75
2023/05/30 04:41:24;;;;;;;7.77;3.70;;;12.20;99.90;;;;;;5006507;28;20249;-76
2023/05/30 04:43:54;;;;;;;9.60;3.63;;;12.20;99.90;;;;;;5010752;28;20206;-76
2023/05/30 04:46:23;;;;;;;10.63;4.20;;;12.20;99.90;;;;;;5005306;28;20226;-77
2023/05/30 04:48:53;;;;;;;7.23;3.60;;;12.30;99.90;;;;;;5012224;28;20276;-76
2023/05/30 04:51:20;;;;;;;9.17;3.87;;;12.30;99.90;;;;;;5011258;28;20209;-76
2023/05/30 04:53:48;;;;;;;9.30;3.57;;;12.30;99.90;;;;;;5012176;28;20214;-77
2023/05/30 04:56:16;;;;;;;9.73;3.67;;;12.30;99.90;;;;;;5009569;28;20214;-75
2023/05/30 04:58:44;;;;;;;10.67;3.80;;;12.40;99.90;;;;;;5008268;28;20665;-76
2023/05/30 05:01:13;;;;;;;9.13;3.70;;;12.40;99.90;;;;;;5007790;28;20246;-75
2023/05/30 05:03:43;;;;;;;13.50;4.00;;;12.50;99.90;;;;;;5010042;28;20671;-75
2023/05/30 05:06:32;;;;;;;10.07;3.80;;;12.50;99.90;;;;;;5006120;28;20206;-76
2023/05/30 05:09:20;;;;;;;6.77;3.20;;;12.50;99.90;;;;;;5000114;28;20212;-76
2023/05/30 05:11:47;;;;;;;11.43;4.00;;;12.60;99.90;;;;;;5005622;28;20206;-77
2023/05/30 05:14:14;;;;;;;10.30;3.47;;;12.60;99.90;;;;;;5003364;28;20574;-76
2023/05/30 05:16:41;;;;;;;7.93;4.20;;;12.60;99.90;;;;;;5015447;28;20231;-78
2023/05/30 05:19:08;;;;;;;7.50;3.33;;;12.70;99.90;;;;;;5046153;28;20699;-76
2023/05/30 05:21:35;;;;;;;9.60;4.23;;;12.80;99.90;;;;;;5043604;28;20221;-75
2023/05/30 05:24:08;;;;;;;10.23;3.53;;;12.80;99.90;;;;;;5050507;28;20622;-76
2023/05/30 05:26:37;;;;;;;6.40;3.50;;;12.80;99.90;;;;;;5049139;28;20209;-76
2023/05/30 05:29:06;;;;;;;10.97;3.67;;;12.90;99.90;;;;;;5050225;28;20205;-75
2023/05/30 05:31:33;;;;;;;10.20;3.30;;;12.90;99.90;;;;;;5047088;28;20217;-76
2023/05/30 05:34:00;;;;;;;8.10;3.63;;;13.00;99.90;;;;;;5051128;28;20200;-76
2023/05/30 05:36:27;;;;;;;13.23;3.80;;;13.20;99.90;;;;;;5045012;28;20200;-78
2023/05/30 05:38:54;;;;;;;8.90;3.80;;;13.30;99.90;;;;;;5050285;28;20272;-78
2023/05/30 05:41:21;;;;;;;7.80;3.73;;;13.30;99.90;;;;;;5049442;28;20236;-76
2023/05/30 05:43:48;;;;;;;6.43;3.37;;;13.30;99.90;;;;;;5030016;28;20304;-77
2023/05/30 05:46:14;;;;;;;8.93;4.00;;;13.30;99.90;;;;;;5045485;28;20228;-76
2023/05/30 05:48:41;;;;;;;6.93;3.80;;;13.40;99.90;;;;;;5045743;28;20296;-75
2023/05/30 05:51:08;;;;;;;6.83;3.60;;;13.20;99.90;;;;;;5027011;28;20256;-79
2023/05/30 05:53:35;;;;;;;10.73;4.23;;;13.20;99.90;;;;;;5043313;28;20224;-77
2023/05/30 05:56:02;;;;;;;7.40;3.53;;;13.30;99.90;;;;;;5047945;28;20193;-78
2023/05/30 05:58:29;;;;;;;13.67;5.03;;;13.30;99.90;;;;;;5040890;28;20272;-79
2023/05/30 06:00:55;;;;;;;10.37;3.97;;;13.30;99.90;;;;;;5029059;28;20236;-77
2023/05/30 06:03:23;;;;;;;5.37;3.33;;;13.40;99.90;;;;;;5029221;28;20316;-77
2023/05/30 06:05:50;;;;;;;13.13;3.97;;;13.40;99.90;;;;;;5031399;28;20224;-77
2023/05/30 06:08:16;;;;;;;9.57;3.77;;;13.60;99.90;;;;;;5043830;28;20573;-75
2023/05/30 06:10:43;;;;;;;8.90;3.93;;;13.60;99.90;;;;;;5029407;28;20633;-77
2023/05/30 06:13:10;;;;;;;8.50;3.80;;;13.60;99.90;;;;;;5029598;28;20228;-77
2023/05/30 06:15:37;;;;;;;10.97;4.37;;;13.80;99.90;;;;;;5043573;28;20201;-74
2023/05/30 06:18:04;;;;;;;11.17;4.03;;;13.70;99.90;;;;;;5030237;28;20239;-73
2023/05/30 06:20:31;;;;;;;8.73;3.77;;;13.60;99.90;;;;;;5048778;28;20575;-77
2023/05/30 06:22:57;;;;;;;11.77;3.77;;;13.60;99.90;;;;;;5042097;28;20701;-77
2023/05/30 06:25:30;;;;;;;26.67;5.20;;;13.70;99.90;;;;;;5048214;28;20213;-75
2023/05/30 06:27:57;;;;;;;8.20;3.50;;;13.80;99.90;;;;;;5030518;28;20282;-77
2023/05/30 06:30:23;;;;;;;36.63;8.83;;;14.10;99.90;;;;;;5045178;28;20214;-75
2023/05/30 06:32:50;;;;;;;8.83;3.43;;;14.20;99.90;;;;;;5038638;28;20802;-74
2023/05/30 06:35:17;;;;;;;13.70;4.07;;;14.30;99.90;;;;;;5043667;28;20286;-73
2023/05/30 06:37:45;;;;;;;20.83;5.47;;;14.20;99.90;;;;;;5047062;28;20201;-76
2023/05/30 06:40:12;;;;;;;9.90;3.80;;;14.20;99.90;;;;;;5044274;28;20258;-73
2023/05/30 06:42:39;;;;;;;19.30;5.10;;;14.20;99.90;;;;;;5043189;28;20625;-72
2023/05/30 06:45:06;;;;;;;14.53;4.20;;;14.30;99.90;;;;;;5042297;28;20915;-76
2023/05/30 06:47:33;;;;;;;13.50;4.13;;;14.30;99.90;;;;;;5047344;28;20239;-74
2023/05/30 06:50:00;;;;;;;10.03;3.90;;;14.40;99.90;;;;;;5045361;28;20197;-73
2023/05/30 06:52:26;;;;;;;19.57;5.33;;;14.60;99.90;;;;;;5039832;28;20251;-73
2023/05/30 06:54:53;;;;;;;7.70;3.50;;;14.70;99.90;;;;;;5044247;28;20208;-72
2023/05/30 06:57:20;;;;;;;10.20;4.10;;;14.80;99.90;;;;;;5047609;28;20243;-74
2023/05/30 06:59:47;;;;;;;9.10;3.83;;;14.90;99.90;;;;;;5046648;28;20201;-72
2023/05/30 07:02:13;;;;;;;16.87;4.83;;;14.90;99.90;;;;;;5045305;28;20249;-74
2023/05/30 07:04:40;;;;;;;13.03;4.90;;;14.90;99.90;;;;;;5033902;28;20203;-74
2023/05/30 07:07:08;;;;;;;13.83;3.70;;;15.10;99.90;;;;;;5044138;28;20209;-74
2023/05/30 07:09:34;;;;;;;11.13;3.97;;;15.50;99.90;;;;;;5048698;28;20589;-76
2023/05/30 07:12:02;;;;;;;8.82;3.42;;;15.90;99.90;;;;;;5050449;28;20575;-73
2023/05/30 07:14:28;;;;;;;10.50;3.72;;;16.60;99.90;;;;;;5050297;28;20209;-72
2023/05/30 07:16:55;;;;;;;18.52;4.70;;;16.90;99.90;;;;;;5012069;28;1049199;-74
2023/05/30 07:19:23;;;;;;;11.45;4.60;;;17.30;99.90;;;;;;5050657;28;20201;-73
2023/05/30 07:21:50;;;;;;;8.80;3.67;;;17.90;99.90;;;;;;5041443;28;20765;-74
2023/05/30 07:24:17;;;;;;;16.15;4.63;;;18.10;99.90;;;;;;5047511;28;20194;-74
2023/05/30 07:26:44;;;;;;;8.40;3.88;;;18.20;99.90;;;;;;5049261;28;20595;-72
2023/05/30 07:29:10;;;;;;;7.43;3.00;;;18.30;99.90;;;;;;5041253;28;20754;-72
2023/05/30 07:31:37;;;;;;;13.05;4.00;;;18.10;99.90;;;;;;5047990;28;20221;-74
2023/05/30 07:34:04;;;;;;;8.82;3.30;;;18.40;99.90;;;;;;5031427;28;20806;-74
2023/05/30 07:36:31;;;;;;;12.90;3.63;;;19.10;99.90;;;;;;5047426;28;20220;-76
2023/05/30 07:38:58;;;;;;;16.75;4.68;;;19.70;99.90;;;;;;5050616;28;20198;-75
2023/05/30 07:41:26;;;;;;;11.23;5.25;;;20.20;99.90;;;;;;5047811;28;20218;-77
2023/05/30 07:43:52;;;;;;;16.60;4.20;;;20.50;99.90;;;;;;5031751;28;20206;-74
2023/05/30 07:46:20;;;;;;;10.75;3.53;;;21.10;99.90;;;;;;5046178;28;20627;-76
2023/05/30 07:48:47;;;;;;;8.73;2.88;;;21.50;99.90;;;;;;5051180;28;20205;-75
2023/05/30 07:51:14;;;;;;;7.60;2.88;;;21.90;99.90;;;;;;5045348;28;20395;-78
2023/05/30 07:53:40;;;;;;;7.07;3.08;;;22.20;99.90;;;;;;5048797;28;20201;-75
2023/05/30 07:56:07;;;;;;;6.18;2.55;;;22.60;99.90;;;;;;5052600;28;20202;-76
2023/05/30 07:58:34;;;;;;;9.77;3.70;;;22.70;99.90;;;;;;5049829;28;20279;-75
2023/05/30 08:01:01;;;;;;;6.38;3.20;;;22.80;99.90;;;;;;5047651;28;20217;-76
2023/05/30 08:03:28;;;;;;;7.88;3.20;;;22.60;99.90;;;;;;5045093;28;20228;-75
2023/05/30 08:05:55;;;;;;;8.02;3.15;;;22.30;99.90;;;;;;5045599;28;20666;-78
2023/05/30 08:08:22;;;;;;;9.90;3.53;;;21.80;99.90;;;;;;5046593;28;20201;-74
2023/05/30 08:10:48;;;;;;;9.00;3.10;;;21.30;99.90;;;;;;5046501;28;20201;-74
2023/05/30 08:13:18;;;;;;;9.93;3.67;;;20.90;99.90;;;;;;5047978;28;20197;-75
2023/05/30 08:15:45;;;;;;;7.15;3.00;;;20.60;99.90;;;;;;5047549;28;20710;-75
2023/05/30 08:18:12;;;;;;;10.10;3.92;;;20.50;99.90;;;;;;5047735;28;20318;-74
2023/05/30 08:20:40;;;;;;;8.82;3.75;;;20.20;99.90;;;;;;5053057;28;20206;-74
2023/05/30 08:23:07;;;;;;;9.38;3.38;;;20.40;99.90;;;;;;5028129;28;20706;-74
2023/05/30 08:25:36;;;;;;;10.15;3.65;;;20.80;99.90;;;;;;5048437;28;20209;-74
2023/05/30 08:28:03;;;;;;;7.85;3.53;;;20.90;99.90;;;;;;5053088;28;20209;-74
2023/05/30 08:30:31;;;;;;;6.20;3.50;;;20.90;99.90;;;;;;5052389;28;20278;-74
2023/05/30 08:33:01;;;;;;;8.25;3.53;;;20.70;99.90;;;;;;5052735;28;20205;-75
2023/05/30 08:35:28;;;;;;;11.20;4.00;;;20.50;99.90;;;;;;5050020;28;20558;-73
2023/05/30 08:37:57;;;;;;;9.98;3.70;;;20.20;99.90;;;;;;5049837;28;20598;-73
2023/05/30 08:40:26;;;;;;;10.13;3.88;;;20.10;99.90;;;;;;5047069;28;20638;-74
2023/05/30 08:42:53;;;;;;;8.48;3.38;;;20.40;99.90;;;;;;5048285;28;20225;-74
2023/05/30 08:45:20;;;;;;;4.63;2.80;;;20.70;99.90;;;;;;5051912;28;20216;-75
2023/05/30 08:47:52;;;;;;;7.85;3.72;;;20.90;99.90;;;;;;5064447;28;20659;-74
2023/05/30 08:50:21;;;;;;;7.20;3.35;;;20.90;99.90;;;;;;5063496;28;20316;-75
2023/05/30 08:52:52;;;;;;;10.07;3.53;;;20.90;99.90;;;;;;5061360;28;20205;-75
2023/05/30 08:55:27;;;;;;;6.93;3.33;;;21.30;99.90;;;;;;5058250;28;20205;-75
2023/05/30 08:58:22;;;;;;;11.70;4.20;;;21.60;99.90;;;;;;5055620;28;20296;-76
2023/05/30 09:00:52;;;;;;;9.73;3.55;;;22.10;99.90;;;;;;5057465;28;20646;-74
2023/05/30 09:03:20;;;;;;;9.98;3.83;;;22.50;99.90;;;;;;5063298;28;20217;-76
2023/05/30 09:05:47;;;;;;;9.15;3.63;;;22.80;99.90;;;;;;5063017;28;20245;-74
2023/05/30 09:08:16;;;;;;;8.30;3.30;;;22.80;99.90;;;;;;5049817;28;20237;-77
2023/05/30 09:10:48;;;;;;;10.55;4.20;;;22.90;99.90;;;;;;5027571;28;20213;-77
2023/05/30 09:13:15;;;;;;;6.45;3.35;;;23.00;99.90;;;;;;5044688;28;20658;-76
2023/05/30 09:15:43;;;;;;;8.35;3.25;;;23.30;99.90;;;;;;5048852;28;20197;-75
2023/05/30 09:18:10;;;;;;;10.38;4.10;;;23.40;99.90;;;;;;5047294;28;20568;-74
2023/05/30 09:20:38;;;;;;;13.43;4.60;;;23.30;99.90;;;;;;5043219;28;20224;-77
2023/05/30 09:23:09;;;;;;;6.72;3.75;;;23.10;99.90;;;;;;5046050;28;20633;-75
2023/05/30 09:25:48;;;;;;;9.88;3.78;;;22.90;99.90;;;;;;5048628;28;20232;-74
2023/05/30 09:28:22;;;;;;;6.72;3.45;;;22.70;99.90;;;;;;5048018;28;20622;-75
2023/05/30 09:31:00;;;;;;;6.80;3.58;;;22.60;99.90;;;;;;5048918;28;20223;-75
2023/05/30 09:33:49;;;;;;;8.20;3.47;;;22.40;99.90;;;;;;5045218;28;20205;-75
2023/05/30 09:36:24;;;;;;;10.43;4.05;;;22.20;99.90;;;;;;5044854;28;20208;-75
2023/05/30 09:39:01;;;;;;;6.93;3.30;;;21.90;99.90;;;;;;5029100;28;20211;-76
2023/05/30 09:41:29;;;;;;;6.55;3.95;;;21.90;99.90;;;;;;5049974;28;20502;-74
2023/05/30 09:43:57;;;;;;;8.18;3.75;;;21.90;99.90;;;;;;5049741;28;20240;-74
2023/05/30 09:46:30;;;;;;;7.00;3.50;;;22.00;99.90;;;;;;5049101;28;20305;-75
2023/05/30 09:48:57;;;;;;;7.93;3.50;;;22.00;99.90;;;;;;5030826;28;20201;-75
2023/05/30 09:51:25;;;;;;;9.30;3.78;;;22.00;99.90;;;;;;5027282;28;20678;-75
2023/05/30 09:54:00;;;;;;;9.10;5.00;;;22.10;99.90;;;;;;5028177;28;20197;-75
2023/05/30 09:56:35;;;;;;;8.30;3.80;;;22.10;99.90;;;;;;5028068;28;20208;-73
2023/05/30 09:59:06;;;;;;;7.68;3.88;;;22.10;99.90;;;;;;5024744;28;20227;-74
2023/05/30 10:01:39;;;;;;;6.40;3.28;;;22.20;99.90;;;;;;5034109;28;20313;-73
2023/05/30 10:04:13;;;;;;;9.55;4.15;;;22.20;99.90;;;;;;5043721;28;20205;-75
2023/05/30 10:06:43;;;;;;;11.32;5.10;;;22.20;99.90;;;;;;5045720;28;20193;-78
2023/05/30 10:09:11;;;;;;;7.18;4.03;;;22.00;99.90;;;;;;5022957;28;20232;-76
2023/05/30 10:11:40;;;;;;;7.35;4.07;;;22.00;99.90;;;;;;5048769;28;20198;-76
2023/05/30 10:14:08;;;;;;;8.65;3.90;;;21.90;99.90;;;;;;5045014;28;20689;-75
2023/05/30 10:16:46;;;;;;;7.50;3.83;;;22.10;99.90;;;;;;5047801;28;20241;-75
2023/05/30 10:19:16;;;;;;;6.05;3.78;;;22.20;99.90;;;;;;5047868;28;20284;-74
2023/05/30 10:21:44;;;;;;;8.15;3.83;;;22.10;99.90;;;;;;5046875;28;20274;-74
2023/05/30 10:24:15;;;;;;;8.25;3.80;;;22.20;99.90;;;;;;5047100;28;20204;-74
2023/05/30 10:26:50;;;;;;;11.10;3.92;;;22.20;99.90;;;;;;5044320;28;20313;-75
2023/05/30 10:29:21;;;;;;;7.68;3.63;;;22.10;99.90;;;;;;5044266;28;20722;-75
2023/05/30 10:31:51;;;;;;;8.93;4.47;;;22.20;99.90;;;;;;5046370;28;20212;-75
2023/05/30 10:34:23;;;;;;;5.78;3.53;;;22.30;99.90;;;;;;5045722;28;20201;-75
2023/05/30 10:36:51;;;;;;;8.15;3.65;;;22.10;99.90;;;;;;5040340;28;20193;-75
2023/05/30 10:39:50;;;;;;;7.68;3.60;;;22.10;99.90;;;;;;5048688;28;20209;-78
2023/05/30 10:42:30;;;;;;;7.97;3.65;;;22.10;99.90;;;;;;5049097;28;20682;-75
2023/05/30 10:45:12;;;;;;;7.63;3.75;;;22.00;99.90;;;;;;5044413;28;20212;-75
2023/05/30 10:47:52;;;;;;;6.75;3.95;;;22.00;99.90;;;;;;5043795;28;20280;-76
2023/05/30 10:50:26;;;;;;;9.43;3.38;;;21.70;99.90;;;;;;5042723;28;20284;-76
2023/05/30 10:52:56;;;;;;;7.70;3.63;;;21.50;99.90;;;;;;5026403;28;20228;-75
2023/05/30 10:55:24;;;;;;;5.60;3.78;;;21.60;99.90;;;;;;5034576;28;20208;-74
2023/05/30 10:57:52;;;;;;;3.90;3.10;;;21.60;99.90;;;;;;5044360;28;20204;-76
2023/05/30 11:00:23;;;;;;;4.90;3.83;;;21.80;99.90;;;;;;5027869;28;20324;-75
2023/05/30 11:02:52;;;;;;;6.70;3.47;;;21.80;99.90;;;;;;5044409;28;20679;-77
2023/05/30 11:05:38;;;;;;;5.78;4.32;;;21.80;99.90;;;;;;5046992;28;20212;-76
2023/05/30 11:08:05;;;;;;;8.00;3.38;;;21.70;99.90;;;;;;5041876;28;20205;-74
2023/05/30 11:10:33;;;;;;;5.05;3.13;;;21.80;99.90;;;;;;5029562;28;20300;-75
2023/05/30 11:13:10;;;;;;;6.20;3.20;;;21.80;99.90;;;;;;5049347;28;20205;-77
2023/05/30 11:15:46;;;;;;;5.30;3.05;;;21.80;99.90;;;;;;5041171;28;20296;-75
2023/05/30 11:18:18;;;;;;;4.60;3.20;;;22.00;99.90;;;;;;5044990;28;20282;-76
2023/05/30 11:20:51;;;;;;;9.23;3.63;;;22.00;99.90;;;;;;5034233;28;20254;-76
2023/05/30 11:23:19;;;;;;;7.15;3.60;;;22.00;99.90;;;;;;5047952;28;20640;-76
2023/05/30 11:25:46;;;;;;;5.15;3.10;;;21.90;99.90;;;;;;5040500;28;20197;-75
2023/05/30 11:28:15;;;;;;;7.15;3.90;;;21.90;99.90;;;;;;5047819;28;20212;-74
2023/05/30 11:30:47;;;;;;;7.97;3.88;;;22.00;99.90;;;;;;5046537;28;20198;-75
2023/05/30 11:33:16;;;;;;;4.75;3.42;;;22.00;99.90;;;;;;5047190;28;20208;-75
2023/05/30 11:35:49;;;;;;;5.30;3.55;;;21.90;99.90;;;;;;5041530;28;20236;-74
2023/05/30 11:38:21;;;;;;;6.28;3.30;;;22.00;99.90;;;;;;5039971;28;20608;-75
2023/05/30 11:40:50;;;;;;;6.15;3.67;;;22.10;99.90;;;;;;5040342;28;20260;-77
2023/05/30 11:43:17;;;;;;;7.00;3.72;;;22.10;99.90;;;;;;5029846;28;20243;-75
2023/05/30 11:45:50;;;;;;;7.20;3.70;;;22.10;99.90;;;;;;5023280;28;20262;-77
2023/05/30 11:48:17;;;;;;;6.03;3.38;;;22.00;99.90;;;;;;5048016;28;20259;-76
2023/05/30 11:50:45;;;;;;;6.50;3.80;;;22.00;99.90;;;;;;5050735;28;20237;-75
2023/05/30 11:53:16;;;;;;;8.25;3.80;;;22.00;99.90;;;;;;5040923;28;20206;-76
2023/05/30 11:55:45;;;;;;;5.20;3.58;;;21.70;99.90;;;;;;5033844;28;20201;-76
2023/05/30 11:58:14;;;;;;;7.25;4.00;;;21.60;99.90;;;;;;5048621;28;20207;-76
2023/05/30 12:00:42;;;;;;;7.93;3.72;;;21.50;99.90;;;;;;5038756;28;20575;-77
2023/05/30 12:03:12;;;;;;;7.38;3.95;;;21.30;99.90;;;;;;5050045;28;20236;-76
2023/05/30 12:05:39;;;;;;;5.47;3.60;;;21.20;99.90;;;;;;5048231;28;20189;-76
2023/05/30 12:08:06;;;;;;;6.53;3.83;;;21.10;99.90;;;;;;5045847;28;20251;-76
2023/05/30 12:10:35;;;;;;;6.53;3.83;;;21.10;99.90;;;;;;5048044;28;20201;-78
2023/05/30 12:13:02;;;;;;;6.97;3.85;;;20.90;99.90;;;;;;5052692;28;20224;-77
2023/05/30 12:15:29;;;;;;;5.88;3.58;;;20.80;99.90;;;;;;5049412;28;20219;-78
2023/05/30 12:17:56;;;;;;;5.85;3.42;;;20.90;99.90;;;;;;5050246;28;20247;-77
2023/05/30 12:20:23;;;;;;;7.20;3.88;;;20.90;99.90;;;;;;5049726;28;20528;-77
2023/05/30 12:22:51;;;;;;;7.70;3.88;;;20.80;99.90;;;;;;5030784;28;20263;-80
2023/05/30 12:25:27;;;;;;;8.60;4.00;;;20.80;99.90;;;;;;5047419;28;20607;-78
2023/05/30 12:27:56;;;;;;;7.78;3.88;;;20.90;99.90;;;;;;5045897;28;20209;-78
2023/05/30 12:30:23;;;;;;;6.05;3.60;;;21.10;99.90;;;;;;5048878;28;20266;-76
2023/05/30 12:32:50;;;;;;;8.25;4.50;;;21.00;99.90;;;;;;5030924;28;20615;-75
2023/05/30 12:35:23;;;;;;;5.88;4.10;;;21.00;99.90;;;;;;5047221;28;20870;-75
2023/05/30 12:37:58;;;;;;;6.93;3.70;;;21.00;99.90;;;;;;5047216;28;20197;-78
2023/05/30 12:40:25;;;;;;;4.95;3.13;;;20.80;99.90;;;;;;5049498;28;20311;-78
2023/05/30 12:42:59;;;;;;;5.45;3.78;;;20.90;99.90;;;;;;5045693;28;20221;-76
2023/05/30 12:45:26;;;;;;;6.72;3.53;;;20.80;99.90;;;;;;5030982;28;20719;-76
2023/05/30 12:47:53;;;;;;;6.65;3.75;;;20.90;99.90;;;;;;5045968;28;20221;-77
2023/05/30 12:50:20;;;;;;;9.38;4.32;;;20.90;99.90;;;;;;5045318;28;20194;-76
2023/05/30 12:52:50;;;;;;;5.55;3.58;;;20.80;99.90;;;;;;5048051;28;20205;-77